Time;durP1;ratioP1;P1;durP2;ratioP2;P2;SDS_P1;SDS_P2;PMS_P1;PMS_P2;Temp;Humidity;BMP_temperature;BMP_pressure;BME280_temperature;BME280_humidity;BME280_pressure;Samples;Min_cycle;Max_cycle;Signal;HPM_P1;HPM_P2
2021/12/29 00:00:39;;;;;;;3.53;2.40;;;;;;;6.89;68.19;99434.69;4933205;28;97717;-51
2021/12/29 00:03:05;;;;;;;21.93;4.10;;;;;;;6.85;68.46;99434.19;4934013;28;97020;-52
2021/12/29 00:05:30;;;;;;;3.30;2.67;;;;;;;6.77;68.28;99436.66;4952879;28;104823;-52
2021/12/29 00:07:56;;;;;;;6.30;2.50;;;;;;;6.74;68.44;99439.63;4946404;28;97363;-52
2021/12/29 00:10:22;;;;;;;4.37;2.40;;;;;;;6.68;68.58;99442.34;4947837;28;127988;-49
2021/12/29 00:12:51;;;;;;;38.70;4.53;;;;;;;6.67;68.43;99440.88;4946146;28;96839;-52
2021/12/29 00:15:18;;;;;;;42.77;4.77;;;;;;;6.65;68.26;99451.56;4947950;28;96942;-49
2021/12/29 00:17:45;;;;;;;19.23;3.60;;;;;;;6.61;68.22;99444.84;4949051;28;97035;-52
2021/12/29 00:20:13;;;;;;;19.23;3.20;;;;;;;6.60;68.44;99454.25;4942966;28;97326;-52
2021/12/29 00:22:39;;;;;;;39.70;4.60;;;;;;;6.59;68.22;99459.00;4948457;28;97191;-51
2021/12/29 00:25:05;;;;;;;41.30;4.53;;;;;;;6.58;68.63;99462.19;4949732;28;97271;-51
2021/12/29 00:27:31;;;;;;;44.03;4.70;;;;;;;6.52;68.43;99475.09;4949674;28;97233;-50
2021/12/29 00:29:56;;;;;;;34.13;4.80;;;;;;;6.49;68.33;99482.28;4951577;28;131610;-50
2021/12/29 00:32:22;;;;;;;10.17;3.00;;;;;;;6.45;68.64;99479.06;4944101;28;97482;-52
2021/12/29 00:34:47;;;;;;;7.40;3.17;;;;;;;6.41;68.46;99494.94;4946265;28;98561;-51
2021/12/29 00:37:13;;;;;;;6.30;2.83;;;;;;;6.35;68.28;99498.91;4945199;28;102091;-52
2021/12/29 00:39:38;;;;;;;7.47;3.60;;;;;;;6.30;67.97;99505.06;4946614;28;96923;-51
2021/12/29 00:42:04;;;;;;;7.43;2.80;;;;;;;6.23;68.41;99519.19;4947464;28;97008;-49
2021/12/29 00:44:32;;;;;;;4.53;3.03;;;;;;;6.21;68.39;99525.16;4941149;28;97034;-48
2021/12/29 00:46:57;;;;;;;3.07;2.37;;;;;;;6.23;68.41;99530.09;4945388;28;97584;-52
2021/12/29 00:49:30;;;;;;;3.70;3.00;;;;;;;6.26;68.21;99534.59;4947724;28;97253;-51
2021/12/29 00:51:55;;;;;;;2.60;2.30;;;;;;;6.27;68.46;99534.09;4945670;28;96704;-52
2021/12/29 00:54:20;;;;;;;4.00;2.27;;;;;;;6.29;68.25;99544.56;4954328;28;96929;-52
2021/12/29 00:56:46;;;;;;;2.40;2.20;;;;;;;6.29;68.33;99539.09;4943993;28;98582;-51
2021/12/29 00:59:11;;;;;;;3.43;2.67;;;;;;;6.31;68.28;99542.81;4945210;28;127119;-51
2021/12/29 01:01:36;;;;;;;2.90;2.43;;;;;;;6.33;68.25;99539.59;4948874;28;96922;-51
2021/12/29 01:04:03;;;;;;;3.00;2.70;;;;;;;6.34;68.26;99539.09;4943701;28;112018;-51
2021/12/29 01:06:28;;;;;;;4.07;3.00;;;;;;;6.38;68.72;99545.09;4942787;28;100775;-52
2021/12/29 01:08:53;;;;;;;3.33;2.97;;;;;;;6.41;68.62;99549.56;4942733;28;96889;-52
2021/12/29 01:11:19;;;;;;;2.87;2.50;;;;;;;6.41;68.45;99557.00;4949956;28;96821;-52
2021/12/29 01:13:48;;;;;;;9.73;3.00;;;;;;;6.46;68.32;99564.50;4950525;28;96976;-49
2021/12/29 01:19:00;;;;;;;5.53;3.07;;;;;;;6.50;68.50;99563.03;4944696;28;97172;-49
2021/12/29 01:21:26;;;;;;;6.20;3.57;;;;;;;6.54;68.55;99565.53;4944455;28;96806;-50
2021/12/29 01:23:52;;;;;;;9.77;4.53;;;;;;;6.55;68.39;99569.75;4947007;28;97021;-51
2021/12/29 01:26:17;;;;;;;7.23;3.50;;;;;;;6.58;68.15;99576.97;4950642;28;97407;-51
2021/12/29 01:28:43;;;;;;;3.40;3.10;;;;;;;6.57;68.31;99570.00;4945633;28;125545;-52
2021/12/29 01:31:08;;;;;;;3.27;2.97;;;;;;;6.59;68.49;99578.47;4947047;28;97209;-51
2021/12/29 01:33:34;;;;;;;4.13;3.20;;;;;;;6.59;68.52;99578.47;4946380;28;97049;-50
2021/12/29 01:35:59;;;;;;;7.33;3.53;;;;;;;6.60;68.49;99586.16;4948195;28;101981;-51
2021/12/29 01:38:24;;;;;;;7.17;3.50;;;;;;;6.62;68.15;99594.63;4947564;28;111278;-50
2021/12/29 01:40:50;;;;;;;6.23;4.10;;;;;;;6.64;68.32;99594.13;4945961;28;115391;-52
2021/12/29 01:43:17;;;;;;;8.40;5.00;;;;;;;6.66;68.20;99606.06;4950197;28;101185;-51
2021/12/29 01:45:43;;;;;;;6.97;3.70;;;;;;;6.67;68.26;99613.03;4945584;28;96778;-51
2021/12/29 01:48:08;;;;;;;20.73;5.67;;;;;;;6.69;68.46;99607.06;4947197;28;97340;-51
2021/12/29 01:50:35;;;;;;;10.37;4.63;;;;;;;6.70;68.12;99617.53;4948728;28;96786;-51
2021/12/29 01:53:03;;;;;;;7.63;4.60;;;;;;;6.73;68.43;99618.50;4948196;28;97241;-52
2021/12/29 01:55:30;;;;;;;6.70;4.20;;;;;;;6.76;68.49;99623.75;4945165;28;97376;-51
2021/12/29 01:57:57;;;;;;;29.80;6.77;;;;;;;6.77;68.29;99633.44;4944680;28;97180;-50
2021/12/29 02:00:25;;;;;;;13.40;4.73;;;;;;;6.79;68.45;99635.69;4945331;28;96722;-50
2021/12/29 02:02:50;;;;;;;11.73;4.93;;;;;;;6.81;68.29;99638.69;4951420;28;97054;-52
2021/12/29 02:05:16;;;;;;;4.10;3.70;;;;;;;6.80;68.40;99632.47;4945308;28;97911;-52
2021/12/29 02:07:43;;;;;;;17.13;4.87;;;;;;;6.80;68.27;99631.72;4950505;28;99122;-52
2021/12/29 02:10:11;;;;;;;6.80;3.67;;;;;;;6.81;68.57;99641.41;4949418;28;97440;-52
2021/12/29 02:12:36;;;;;;;26.43;6.20;;;;;;;6.82;68.42;99645.63;4946665;28;99558;-51
2021/12/29 02:15:03;;;;;;;5.77;4.37;;;;;;;6.85;68.08;99643.91;4951655;28;98181;-49
2021/12/29 02:17:28;;;;;;;5.90;4.50;;;;;;;6.86;68.28;99656.34;4949365;28;97131;-52
2021/12/29 02:19:57;;;;;;;6.90;4.30;;;;;;;6.86;68.16;99659.81;4948901;28;96879;-51
2021/12/29 02:25:06;;;;;;;6.30;3.87;;;;;;;6.85;68.43;99652.84;4949803;28;96876;-51
2021/12/29 02:27:32;;;;;;;27.27;5.87;;;;;;;6.86;68.25;99661.81;4952264;28;97152;-50
2021/12/29 02:29:58;;;;;;;21.60;5.17;;;;;;;6.88;68.42;99664.81;4950797;28;101095;-51
2021/12/29 02:32:24;;;;;;;42.17;6.80;;;;;;;6.89;67.99;99666.28;4952598;28;96913;-49
2021/12/29 02:34:49;;;;;;;17.27;4.37;;;;;;;6.90;68.18;99673.25;4950476;28;97419;-51
2021/12/29 02:37:19;;;;;;;8.33;4.70;;;;;;;6.90;68.38;99690.41;4947055;28;106640;-52
2021/12/29 02:39:45;;;;;;;15.80;5.27;;;;;;;6.91;68.21;99691.91;4950777;28;97939;-51
2021/12/29 02:42:10;;;;;;;24.03;6.03;;;;;;;6.93;67.99;99694.88;4951910;28;97164;-52
2021/12/29 02:44:40;;;;;;;30.47;7.43;;;;;;;6.95;68.41;99697.88;4944536;28;97153;-51
2021/12/29 02:47:07;;;;;;;36.83;8.67;;;;;;;6.97;68.65;99698.13;4945378;28;97395;-51
2021/12/29 02:49:32;;;;;;;11.40;4.90;;;;;;;6.99;68.65;99690.19;4947218;28;97366;-51
2021/12/29 02:51:58;;;;;;;23.30;7.10;;;;;;;7.02;68.79;99694.69;4947393;28;96965;-51
2021/12/29 02:54:23;;;;;;;45.47;8.57;;;;;;;7.03;68.27;99704.41;4947608;28;96998;-50
2021/12/29 02:56:54;;;;;;;18.10;6.00;;;;;;;7.05;68.48;99710.13;4946342;28;96861;-52
2021/12/29 02:59:20;;;;;;;43.43;8.23;;;;;;;7.04;68.36;99697.69;4957287;28;96999;-51
2021/12/29 03:01:46;;;;;;;10.27;5.33;;;;;;;7.04;68.29;99700.41;4950780;28;97922;-52
2021/12/29 03:04:11;;;;;;;10.70;5.70;;;;;;;7.05;68.47;99715.59;4952081;28;97814;-51
2021/12/29 03:06:37;;;;;;;30.23;8.50;;;;;;;7.08;68.44;99713.84;4944898;28;96810;-51
2021/12/29 03:09:04;;;;;;;14.60;6.90;;;;;;;7.10;68.69;99705.91;4946348;28;97095;-49
2021/12/29 03:11:30;;;;;;;15.60;6.50;;;;;;;7.12;68.66;99717.09;4946827;28;97292;-52
2021/12/29 03:13:55;;;;;;;13.63;7.10;;;;;;;7.13;68.35;99716.59;4948270;28;102139;-52
2021/12/29 03:16:20;;;;;;;16.37;7.17;;;;;;;7.16;68.46;99717.63;4943687;28;97013;-52
2021/12/29 03:18:46;;;;;;;14.20;7.37;;;;;;;7.19;68.92;99706.44;4950632;28;97315;-52
2021/12/29 03:21:12;;;;;;;15.53;8.07;;;;;;;7.24;68.72;99708.44;4948727;28;96938;-51
2021/12/29 03:23:38;;;;;;;17.37;7.80;;;;;;;7.27;68.73;99712.91;4953689;28;97067;-52
2021/12/29 03:26:06;;;;;;;21.77;7.73;;;;;;;7.30;68.51;99722.88;4947379;28;97154;-52
2021/12/29 03:28:32;;;;;;;18.87;8.07;;;;;;;7.33;68.94;99721.91;4944020;28;96835;-52
2021/12/29 03:30:57;;;;;;;39.67;10.80;;;;;;;7.33;68.66;99726.63;4947632;28;96839;-51
2021/12/29 03:33:28;;;;;;;21.90;7.53;;;;;;;7.34;68.71;99728.88;4946587;28;96751;-51
2021/12/29 03:36:00;;;;;;;21.30;7.87;;;;;;;7.36;68.54;99726.38;4944901;28;97143;-48
2021/12/29 03:38:27;;;;;;;17.30;7.70;;;;;;;7.39;68.91;99733.63;4947637;28;98707;-52
2021/12/29 03:40:54;;;;;;;64.67;11.27;;;;;;;7.43;68.83;99736.88;4949678;28;96930;-52
2021/12/29 03:43:20;;;;;;;26.43;9.30;;;;;;;7.42;68.60;99740.84;4951978;28;97128;-52
2021/12/29 03:45:48;;;;;;;83.67;13.03;;;;;;;7.44;68.96;99737.63;4944446;28;97351;-51
2021/12/29 03:48:14;;;;;;;17.50;7.23;;;;;;;7.44;68.97;99741.09;4948096;28;96922;-52
2021/12/29 03:50:40;;;;;;;28.90;10.20;;;;;;;7.45;68.91;99750.78;4946051;28;97048;-52
2021/12/29 03:53:06;;;;;;;19.70;8.77;;;;;;;7.48;68.84;99747.09;4944627;28;96851;-49
2021/12/29 03:55:32;;;;;;;26.77;9.80;;;;;;;7.50;68.92;99752.06;4948578;28;98783;-51
2021/12/29 03:57:57;;;;;;;19.70;9.43;;;;;;;7.55;69.04;99767.75;4944244;28;96917;-52
2021/12/29 04:00:23;;;;;;;23.83;10.27;;;;;;;7.57;69.00;99766.03;4943638;28;97291;-52
2021/12/29 04:02:48;;;;;;;27.63;9.97;;;;;;;7.60;68.99;99779.97;4947110;28;97212;-49
2021/12/29 04:05:20;;;;;;;16.20;8.53;;;;;;;7.63;69.06;99771.50;4944159;28;97322;-52
2021/12/29 04:07:47;;;;;;;49.60;11.37;;;;;;;7.64;68.90;99778.50;4953444;28;96825;-52
2021/12/29 04:10:13;;;;;;;21.63;9.27;;;;;;;7.68;69.25;99783.72;4948497;28;96868;-51
2021/12/29 04:12:39;;;;;;;16.73;9.03;;;;;;;7.69;68.89;99787.97;4942153;28;96713;-52
2021/12/29 04:15:06;;;;;;;15.80;9.80;;;;;;;7.71;69.12;99785.47;4947812;28;97438;-52
2021/12/29 04:17:37;;;;;;;23.10;10.73;;;;;;;7.74;69.11;99796.19;4946548;28;96704;-51
2021/12/29 04:23:04;;;;;;;18.70;9.10;;;;;;;7.76;69.14;99801.16;4944854;28;100649;-48
2021/12/29 04:25:34;;;;;;;24.50;11.27;;;;;;;7.80;69.04;99809.91;4944017;28;97038;-51
2021/12/29 04:28:01;;;;;;;24.33;11.00;;;;;;;7.83;69.20;99822.59;4948435;28;96946;-51
2021/12/29 04:30:26;;;;;;;23.10;10.27;;;;;;;7.85;69.13;99814.63;4941570;28;98180;-52
2021/12/29 04:32:53;;;;;;;31.27;10.43;;;;;;;7.88;69.20;99810.91;4947939;28;97337;-52
2021/12/29 04:35:20;;;;;;;29.77;11.50;;;;;;;7.90;69.18;99813.91;4946469;28;96690;-52
2021/12/29 04:37:45;;;;;;;24.43;11.03;;;;;;;7.90;69.17;99822.13;4946048;28;96925;-49
2021/12/29 04:40:11;;;;;;;88.30;15.87;;;;;;;7.92;69.14;99822.38;4949112;28;96855;-52
2021/12/29 04:42:36;;;;;;;59.27;14.10;;;;;;;7.89;69.00;99826.09;4943511;28;100521;-52
2021/12/29 04:45:03;;;;;;;68.03;15.30;;;;;;;7.91;69.25;99829.81;4943360;28;96908;-50
2021/12/29 04:47:30;;;;;;;88.10;15.23;;;;;;;7.94;69.08;99830.84;4948170;28;96773;-52
2021/12/29 04:49:59;;;;;;;44.93;15.07;;;;;;;7.97;69.36;99838.06;4950628;28;96835;-52
2021/12/29 04:52:26;;;;;;;54.37;14.60;;;;;;;7.99;69.11;99847.31;4951233;28;96796;-52
2021/12/29 04:54:51;;;;;;;56.57;14.27;;;;;;;8.03;69.28;99856.03;4945717;28;97756;-52
2021/12/29 04:57:16;;;;;;;39.60;12.77;;;;;;;8.07;69.45;99859.28;4949071;28;96667;-50
2021/12/29 04:59:43;;;;;;;48.23;15.27;;;;;;;8.11;69.21;99853.53;4951541;28;98454;-52
2021/12/29 05:02:09;;;;;;;48.00;13.00;;;;;;;8.11;69.24;99859.78;4945395;28;97166;-53
2021/12/29 05:04:44;;;;;;;60.90;14.20;;;;;;;8.15;69.30;99859.53;4949744;28;97844;-52
2021/12/29 05:09:54;;;;;;;62.73;15.20;;;;;;;8.19;69.16;99887.44;4944152;28;96857;-52
2021/12/29 05:12:19;;;;;;;63.90;15.40;;;;;;;8.21;69.46;99910.34;4945262;28;97296;-52
2021/12/29 05:14:44;;;;;;;45.43;14.10;;;;;;;8.23;69.45;99887.97;4947866;28;126858;-52
2021/12/29 05:17:09;;;;;;;94.57;18.60;;;;;;;8.26;69.35;99886.97;4948598;28;107516;-51
2021/12/29 05:19:35;;;;;;;127.90;20.07;;;;;;;8.28;69.28;99889.97;4946826;28;118431;-51
2021/12/29 05:22:01;;;;;;;70.30;15.17;;;;;;;8.28;69.43;99898.94;4943121;28;98831;-52
2021/12/29 05:24:26;;;;;;;51.57;14.20;;;;;;;8.30;69.35;99895.69;4952150;28;97458;-52
2021/12/29 05:26:53;;;;;;;104.17;17.37;;;;;;;8.34;69.19;99896.22;4945738;28;97296;-52
2021/12/29 05:29:18;;;;;;;85.47;16.67;;;;;;;8.35;69.56;99894.97;4951249;28;96980;-51
2021/12/29 05:31:43;;;;;;;77.03;16.00;;;;;;;8.36;69.47;99907.44;4949569;28;126725;-52
2021/12/29 05:34:09;;;;;;;53.97;14.30;;;;;;;8.39;69.26;99897.50;4943945;28;97137;-52
2021/12/29 05:36:34;;;;;;;55.00;13.60;;;;;;;8.38;69.36;99896.72;4944878;28;99057;-52
2021/12/29 05:38:59;;;;;;;52.50;13.40;;;;;;;8.39;69.14;99897.50;4942330;28;115694;-52
2021/12/29 05:41:25;;;;;;;62.83;14.80;;;;;;;8.39;69.24;99905.72;4948342;28;97851;-52
2021/12/29 05:43:51;;;;;;;92.47;16.20;;;;;;;8.40;69.20;99904.44;4952739;28;96736;-53
2021/12/29 05:46:16;;;;;;;79.17;14.47;;;;;;;8.38;69.16;99907.69;4950942;28;97079;-52
2021/12/29 05:48:42;;;;;;;106.80;16.47;;;;;;;8.40;69.20;99913.44;4958297;28;96865;-51
2021/12/29 05:51:07;;;;;;;58.87;14.90;;;;;;;8.39;69.31;99917.41;4943917;28;103427;-52
2021/12/29 05:53:33;;;;;;;170.50;17.97;;;;;;;8.39;69.18;99909.19;4950486;28;97020;-52
2021/12/29 05:55:59;;;;;;;69.10;14.43;;;;;;;8.38;69.27;99921.41;4947281;28;97315;-52
2021/12/29 05:58:24;;;;;;;50.80;13.43;;;;;;;8.40;69.32;99929.88;4947184;28;96950;-50
2021/12/29 06:00:50;;;;;;;57.73;15.17;;;;;;;8.40;69.28;99932.63;4938515;28;97450;-52
2021/12/29 06:03:15;;;;;;;40.93;11.90;;;;;;;8.40;69.36;99938.09;4943821;28;97193;-53
2021/12/29 06:05:41;;;;;;;67.63;13.50;;;;;;;8.41;69.29;99930.63;4942773;28;97024;-49
2021/12/29 06:08:07;;;;;;;77.33;14.30;;;;;;;8.39;69.15;99936.59;4946082;28;96747;-52
2021/12/29 06:10:33;;;;;;;39.77;13.70;;;;;;;8.40;69.40;99938.09;4942133;28;97350;-52
2021/12/29 06:12:59;;;;;;;25.50;11.77;;;;;;;8.42;69.19;99945.81;4947868;28;96743;-53
2021/12/29 06:15:24;;;;;;;37.67;13.30;;;;;;;8.45;69.63;99942.84;4945469;28;96954;-53
2021/12/29 06:17:49;;;;;;;27.07;11.40;;;;;;;8.47;69.57;99951.31;4951164;28;114315;-52
2021/12/29 06:20:15;;;;;;;61.43;12.33;;;;;;;8.49;69.42;99948.84;4949592;28;96860;-53
2021/12/29 06:22:42;;;;;;;29.90;11.30;;;;;;;8.51;69.37;99951.06;4945501;28;98585;-51
2021/12/29 06:25:11;;;;;;;27.57;11.60;;;;;;;8.50;69.29;99950.31;4945248;28;96961;-52
2021/12/29 06:27:36;;;;;;;33.40;10.87;;;;;;;8.51;69.27;99960.06;4948017;28;96926;-53
2021/12/29 06:30:04;;;;;;;26.00;11.10;;;;;;;8.51;69.42;99970.25;4944819;28;98559;-52
2021/12/29 06:32:29;;;;;;;46.50;13.13;;;;;;;8.53;69.54;99973.25;4950260;28;97205;-53
2021/12/29 06:34:55;;;;;;;27.57;10.60;;;;;;;8.54;69.40;99975.50;4947976;28;96894;-52
2021/12/29 06:37:21;;;;;;;26.63;10.83;;;;;;;8.55;69.58;99995.44;4951535;28;97747;-52
2021/12/29 06:39:47;;;;;;;27.40;9.93;;;;;;;8.56;69.36;99981.22;4949047;28;97387;-52
2021/12/29 06:42:15;;;;;;;21.40;10.03;;;;;;;8.55;69.38;99987.22;4951477;28;97013;-52
2021/12/29 06:44:42;;;;;;;22.67;9.67;;;;;;;8.54;69.52;99994.69;4943112;28;96951;-50
2021/12/29 06:47:08;;;;;;;26.97;10.27;;;;;;;8.54;69.65;100007.66;4945335;28;97194;-51
2021/12/29 06:49:34;;;;;;;20.30;10.00;;;;;;;8.54;69.55;100013.16;4944593;28;98024;-50
2021/12/29 06:52:00;;;;;;;16.37;8.40;;;;;;;8.55;69.53;100018.13;4944163;28;99952;-53
2021/12/29 06:54:25;;;;;;;19.03;10.37;;;;;;;8.57;69.50;100028.59;4945732;28;97068;-53
2021/12/29 06:56:51;;;;;;;18.70;9.17;;;;;;;8.58;69.69;100038.31;4950105;28;96955;-52
2021/12/29 06:59:16;;;;;;;18.00;9.00;;;;;;;8.58;69.63;100041.06;4947401;28;97734;-51
2021/12/29 07:01:41;;;;;;;23.67;9.70;;;;;;;8.59;69.67;100048.03;4954574;28;119963;-52
2021/12/29 07:04:07;;;;;;;17.00;7.90;;;;;;;8.59;69.58;100056.25;4951786;28;97993;-52
2021/12/29 07:06:32;;;;;;;20.63;8.87;;;;;;;8.60;69.78;100063.25;4950252;28;96934;-52
2021/12/29 07:08:57;;;;;;;27.53;10.10;;;;;;;8.60;69.50;100066.75;4948840;28;97124;-52
2021/12/29 07:11:23;;;;;;;22.43;10.00;;;;;;;8.61;69.58;100070.22;4949871;28;121368;-52
2021/12/29 07:13:49;;;;;;;22.80;10.20;;;;;;;8.62;69.61;100077.97;4947162;28;96798;-52
2021/12/29 07:16:15;;;;;;;20.80;9.53;;;;;;;8.63;69.77;100073.97;4945524;28;97359;-52
2021/12/29 07:18:40;;;;;;;30.47;10.33;;;;;;;8.65;69.52;100079.00;4950415;28;97435;-52
2021/12/29 07:21:06;;;;;;;22.70;9.57;;;;;;;8.67;69.72;100088.19;4952687;28;96860;-53
2021/12/29 07:23:31;;;;;;;21.70;8.67;;;;;;;8.66;69.65;100088.69;4946469;28;96976;-49
2021/12/29 07:25:56;;;;;;;27.53;10.50;;;;;;;8.69;69.61;100096.69;4954995;28;97383;-52
2021/12/29 07:28:22;;;;;;;23.93;9.50;;;;;;;8.71;69.70;100096.22;4947677;28;111507;-52
2021/12/29 07:30:47;;;;;;;20.10;9.43;;;;;;;8.70;69.71;100116.63;4952592;28;97263;-50
2021/12/29 07:33:12;;;;;;;19.40;8.10;;;;;;;8.72;69.67;100103.19;4952136;28;97085;-52
2021/12/29 07:35:38;;;;;;;17.90;8.37;;;;;;;8.74;69.72;100117.91;4946330;28;97393;-52
2021/12/29 07:38:03;;;;;;;43.07;9.10;;;;;;;8.77;69.52;100121.66;4945344;28;97284;-51
2021/12/29 07:40:28;;;;;;;18.53;8.30;;;;;;;8.76;69.56;100118.16;4948050;28;97071;-51
2021/12/29 07:42:54;;;;;;;18.90;8.30;;;;;;;8.74;69.56;100123.38;4947306;28;96869;-52
2021/12/29 07:45:19;;;;;;;20.10;8.17;;;;;;;8.77;69.80;100125.16;4952637;28;96698;-53
2021/12/29 07:47:47;;;;;;;51.93;8.90;;;;;;;8.80;69.66;100121.41;4949865;28;96839;-50
2021/12/29 07:50:16;;;;;;;20.67;8.60;;;;;;;8.77;69.79;100138.88;4950769;28;101638;-53
2021/12/29 07:52:41;;;;;;;22.27;7.37;;;;;;;8.79;69.72;100139.13;4947443;28;96770;-52
2021/12/29 07:55:07;;;;;;;68.63;10.20;;;;;;;8.82;69.59;100146.34;4945838;28;97594;-54
2021/12/29 07:57:32;;;;;;;27.60;7.83;;;;;;;8.81;69.65;100144.09;4950392;28;98471;-52
2021/12/29 07:59:58;;;;;;;65.13;8.97;;;;;;;8.81;69.55;100160.56;4946209;28;119717;-52
2021/12/29 08:02:27;;;;;;;89.10;10.60;;;;;;;8.81;69.60;100166.03;4945743;28;108533;-50
2021/12/29 08:04:54;;;;;;;26.70;8.13;;;;;;;8.80;69.47;100164.56;4950202;28;97157;-53
2021/12/29 08:07:20;;;;;;;20.30;7.60;;;;;;;8.79;69.59;100172.03;4948791;28;98615;-51
2021/12/29 08:09:45;;;;;;;19.87;7.97;;;;;;;8.81;69.55;100172.28;4952874;28;97425;-55
2021/12/29 08:12:10;;;;;;;21.70;8.50;;;;;;;8.83;69.81;100178.03;4945406;28;118318;-52
2021/12/29 08:14:36;;;;;;;19.17;7.93;;;;;;;8.83;69.67;100175.28;4952426;28;113977;-52
2021/12/29 08:17:02;;;;;;;41.23;7.93;;;;;;;8.85;69.63;100174.78;4949886;28;116643;-52
2021/12/29 08:19:28;;;;;;;24.20;8.50;;;;;;;8.89;69.70;100172.56;4949123;28;97178;-53
2021/12/29 08:21:53;;;;;;;48.93;9.27;;;;;;;8.88;69.66;100171.84;4952340;28;97337;-52
2021/12/29 08:24:18;;;;;;;31.17;8.50;;;;;;;8.90;69.66;100168.59;4948683;28;96810;-52
2021/12/29 08:26:44;;;;;;;38.00;9.27;;;;;;;8.90;69.93;100172.09;4947085;28;97205;-52
2021/12/29 08:29:09;;;;;;;37.37;9.23;;;;;;;8.93;69.66;100173.81;4945890;28;108012;-51
2021/12/29 08:31:34;;;;;;;28.90;9.97;;;;;;;8.95;69.64;100176.81;4945987;28;116083;-53
2021/12/29 08:34:00;;;;;;;32.70;8.00;;;;;;;8.97;69.61;100182.59;4949454;28;96759;-52
2021/12/29 08:36:25;;;;;;;85.83;10.07;;;;;;;8.98;69.51;100177.84;4948695;28;97254;-53
2021/12/29 08:38:51;;;;;;;36.70;9.30;;;;;;;8.98;69.54;100175.09;4951637;28;97276;-53
2021/12/29 08:41:16;;;;;;;23.17;9.27;;;;;;;8.99;69.54;100173.88;4951335;28;97298;-52
2021/12/29 08:43:42;;;;;;;84.33;12.50;;;;;;;9.00;69.56;100170.63;4952843;28;97076;-53
2021/12/29 08:46:08;;;;;;;99.43;11.17;;;;;;;9.01;69.47;100168.63;4950977;28;97265;-52
2021/12/29 08:48:33;;;;;;;23.17;8.27;;;;;;;9.02;69.56;100170.88;4948864;28;96955;-53
2021/12/29 08:51:00;;;;;;;32.90;9.37;;;;;;;9.03;69.56;100177.88;4945697;28;97242;-51
2021/12/29 08:53:26;;;;;;;35.17;7.50;;;;;;;9.04;69.46;100176.63;4950618;28;96819;-52
2021/12/29 08:55:55;;;;;;;43.67;8.80;;;;;;;9.06;69.47;100182.38;4950196;28;98546;-52
2021/12/29 08:58:24;;;;;;;63.33;9.27;;;;;;;9.07;69.45;100183.88;4952262;28;100459;-53
2021/12/29 09:00:50;;;;;;;33.30;7.67;;;;;;;9.06;69.40;100187.84;4948200;28;97148;-52
2021/12/29 09:03:16;;;;;;;32.63;8.90;;;;;;;9.06;69.45;100182.38;4955673;28;97099;-52
2021/12/29 09:05:41;;;;;;;70.00;9.13;;;;;;;9.06;69.48;100185.09;4948819;28;126858;-53
2021/12/29 09:08:06;;;;;;;90.00;10.40;;;;;;;9.05;69.41;100185.59;4950793;28;128075;-52
2021/12/29 09:10:32;;;;;;;20.00;7.77;;;;;;;9.06;69.54;100192.59;4954298;28;97122;-50
2021/12/29 09:12:57;;;;;;;46.97;9.00;;;;;;;9.09;69.55;100207.34;4949772;28;97760;-52
2021/12/29 09:15:24;;;;;;;55.67;8.20;;;;;;;9.07;69.57;100210.56;4946173;28;124426;-52
2021/12/29 09:17:49;;;;;;;74.00;9.33;;;;;;;9.07;69.49;100199.59;4942369;28;97167;-52
2021/12/29 09:20:24;;;;;;;17.27;6.30;;;;;;;9.10;69.53;100209.59;4941235;28;102179;-52
2021/12/29 09:22:51;;;;;;;15.53;7.50;;;;;;;9.12;69.51;100214.56;4943908;28;97088;-54
2021/12/29 09:25:16;;;;;;;20.53;7.60;;;;;;;9.15;69.34;100213.59;4945342;28;97574;-52
2021/12/29 09:27:42;;;;;;;29.77;7.60;;;;;;;9.14;69.57;100210.09;4945564;28;96859;-52
2021/12/29 09:30:08;;;;;;;18.83;7.40;;;;;;;9.15;69.50;100217.09;4947983;28;96881;-52
2021/12/29 09:32:34;;;;;;;54.23;9.47;;;;;;;9.16;69.52;100223.31;4945423;28;96754;-51
2021/12/29 09:35:00;;;;;;;17.20;7.53;;;;;;;9.15;69.58;100230.06;4944413;28;98109;-55
2021/12/29 09:37:27;;;;;;;29.27;7.70;;;;;;;9.17;69.67;100233.81;4946385;28;97311;-51
2021/12/29 09:39:52;;;;;;;21.97;8.10;;;;;;;9.19;69.70;100238.81;4936187;28;97292;-51
2021/12/29 09:42:17;;;;;;;27.47;8.77;;;;;;;9.21;69.77;100241.81;4939284;28;97679;-51
2021/12/29 09:44:43;;;;;;;20.87;8.77;;;;;;;9.21;69.73;100255.53;4938834;28;97495;-51
2021/12/29 09:47:10;;;;;;;20.20;8.13;;;;;;;9.23;69.81;100255.78;4939463;28;123316;-51
2021/12/29 09:49:37;;;;;;;32.53;8.70;;;;;;;9.26;69.90;100254.81;4939619;28;97068;-50
2021/12/29 09:52:03;;;;;;;19.40;8.53;;;;;;;9.29;69.87;100256.56;4944528;28;96912;-51
2021/12/29 09:54:29;;;;;;;18.70;7.33;;;;;;;9.33;70.00;100252.34;4951332;28;97442;-51
2021/12/29 09:56:54;;;;;;;29.63;8.13;;;;;;;9.39;69.94;100241.41;4945243;28;97290;-51
2021/12/29 09:59:19;;;;;;;48.83;9.47;;;;;;;9.42;69.88;100246.63;4950264;28;115818;-51
2021/12/29 10:01:45;;;;;;;47.60;10.07;;;;;;;9.44;69.88;100238.66;4943669;28;112042;-51
2021/12/29 10:04:13;;;;;;;21.53;7.20;;;;;;;9.45;69.85;100244.91;4941184;28;99368;-51
2021/12/29 10:06:38;;;;;;;16.73;7.27;;;;;;;9.50;69.74;100253.16;4943201;28;98386;-51
2021/12/29 10:09:13;;;;;;;26.00;8.10;;;;;;;9.55;69.90;100254.41;4943228;28;97938;-52
2021/12/29 10:11:39;;;;;;;12.50;6.70;;;;;;;9.59;69.92;100252.16;4945803;28;97407;-51
2021/12/29 10:14:13;;;;;;;22.40;8.40;;;;;;;9.63;69.87;100263.69;4946467;28;98973;-51
2021/12/29 10:16:40;;;;;;;33.90;9.33;;;;;;;9.65;69.73;100264.69;4945365;28;97041;-51
2021/12/29 10:19:12;;;;;;;27.43;7.97;;;;;;;9.68;69.61;100271.94;4956564;28;97482;-52
2021/12/29 10:21:45;;;;;;;19.50;7.83;;;;;;;9.69;69.73;100258.97;4943896;28;98288;-52
2021/12/29 10:24:12;;;;;;;28.07;7.83;;;;;;;9.70;69.77;100274.19;4942923;28;101839;-51
2021/12/29 10:26:40;;;;;;;22.23;8.70;;;;;;;9.71;69.76;100276.44;4943979;28;104144;-51
2021/12/29 10:29:09;;;;;;;65.50;10.20;;;;;;;9.73;69.79;100279.44;4943045;28;98155;-51
2021/12/29 10:31:44;;;;;;;71.43;10.70;;;;;;;9.76;69.73;100281.19;4945251;28;98018;-51
2021/12/29 10:34:19;;;;;;;22.57;7.20;;;;;;;9.78;69.79;100278.69;4945654;28;98209;-51
2021/12/29 10:36:47;;;;;;;17.30;6.00;;;;;;;9.79;69.72;100271.22;4949355;28;97502;-51
2021/12/29 10:39:23;;;;;;;14.80;6.47;;;;;;;9.83;69.80;100269.72;4950503;28;98995;-51
2021/12/29 10:41:51;;;;;;;12.93;5.63;;;;;;;9.87;69.82;100272.25;4951118;28;97034;-50
2021/12/29 10:44:24;;;;;;;24.63;6.60;;;;;;;9.91;69.73;100280.25;4950076;28;98617;-51
2021/12/29 10:46:52;;;;;;;10.00;4.50;;;;;;;9.92;70.03;100279.72;4948971;28;97155;-51
2021/12/29 10:49:18;;;;;;;17.83;5.77;;;;;;;9.95;69.87;100283.50;4947379;28;97128;-51
2021/12/29 10:51:43;;;;;;;6.77;4.50;;;;;;;9.98;69.88;100285.97;4948885;28;96974;-51
2021/12/29 10:54:15;;;;;;;10.60;4.40;;;;;;;10.02;69.80;100283.00;4947374;28;97549;-51
2021/12/29 10:56:44;;;;;;;14.70;5.30;;;;;;;10.05;69.81;100284.75;4946295;28;97298;-52
2021/12/29 10:59:21;;;;;;;12.73;5.10;;;;;;;10.08;69.90;100298.25;4949939;28;96919;-52
2021/12/29 11:01:47;;;;;;;16.60;5.30;;;;;;;10.09;69.88;100308.00;4949027;28;98586;-51
2021/12/29 11:04:14;;;;;;;16.47;6.47;;;;;;;10.12;69.82;100298.03;4949656;28;97526;-51
2021/12/29 11:06:43;;;;;;;12.73;5.87;;;;;;;10.14;69.81;100295.53;4946698;28;97807;-51
2021/12/29 11:09:09;;;;;;;14.20;6.10;;;;;;;10.16;69.93;100293.03;4949991;28;97047;-52
2021/12/29 11:11:38;;;;;;;14.77;6.40;;;;;;;10.20;69.91;100293.56;4948727;28;97190;-51
2021/12/29 11:14:21;;;;;;;15.23;6.80;;;;;;;10.21;69.99;100297.81;4946887;28;97604;-52
2021/12/29 11:16:52;;;;;;;11.00;5.27;;;;;;;10.18;69.95;100299.53;4950430;28;98468;-51
2021/12/29 11:19:19;;;;;;;13.00;5.63;;;;;;;10.20;70.03;100290.81;4948535;28;97496;-51
2021/12/29 11:21:44;;;;;;;16.30;6.10;;;;;;;10.21;69.99;100292.31;4948122;28;97457;-51
2021/12/29 11:24:23;;;;;;;12.87;5.93;;;;;;;10.24;70.12;100294.06;4953105;28;97045;-51
2021/12/29 11:26:49;;;;;;;13.17;5.67;;;;;;;10.26;70.06;100291.56;4951109;28;98047;-51
2021/12/29 11:29:17;;;;;;;14.37;6.53;;;;;;;10.30;70.15;100294.81;4949010;28;97018;-51
2021/12/29 11:31:51;;;;;;;12.70;5.87;;;;;;;10.34;70.10;100293.31;4951468;28;97595;-51
2021/12/29 11:34:26;;;;;;;11.47;5.90;;;;;;;10.40;70.16;100285.81;4947992;28;96875;-51